Nottingham, United Kingdom
Current Conditions -  °F | °C
As of 4:50 PM on Friday 24 Oct 2014 (Local Time) from EGNX Reporting Station
Moderate Rain Moderate Rain  
Wind Chill: 55°   Ceiling: 1300
Heat Index: 55°   Visibility: 4mi
Dew Point: 54°   Wind: 10mph
Humidity: 94%   Direction: 270°W
Pressure: 29.85"   Gusts: NA
Location:  52.96°N, 1.15°W
Report Text: EGNX 241550Z 27009KT 6000 RA FEW005 BKN013 13/12 Q1011
Loading
Personal Weather Stations






























Interactive Weather Map
Tropical Storm Tracking
New forecast layout! Learn more

10-Day Weather Forecast

Advertisements
Track Severe Weather on mobile